Terminal Aerodrome Forecast
Issued by NWS Boston, MA

Home | Current Version | Previous Version | Text Only | Print | Product List | Glossary On
Versions: 1 2 3 4 5 6 7 8 9 10 11 12 13 14 15 16 17 18 19 20 21 22 23 24 25 26 27 28 29 30 31 32 33 34 35 36 37 38 39 40 41 42 43 44 45 46 47 48 49
000
FTUS41 KBOX 271738
TAFBOS
TAF
KBOS 271738Z 2718/2824 07013G19KT P6SM VCSH BKN025 OVC035
     FM280100 05010G17KT 4SM BR VCSH OVC015
     FM280300 06010G17KT 4SM -DZ BR OVC008
     FM281000 04008KT 5SM BR OVC005
     FM281300 03007KT 6SM BR OVC009
     FM281600 05005KT P6SM OVC015
     FM282100 11005KT P6SM BKN035=

USA.gov is the U.S. government's official web portal to all federal, state and local government web resources and services.